Latest Weather Observations for Gayndah

IDQ60801

Issued at 5:35 pm EST Friday 25 April 2014 (issued every 30 minutes, with the page automatically refreshed every 10 minutes)

About weather observations | Map of weather stations | Latest weather observations for QLD | Other Formats
Station Details ID: 039066 Name: GAYNDAH AIRPORT Lat: -25.62 Lon: 151.62 Height: 110.9 m
Data from the previous 72 hours. | See also: Recent months at Gayndah
Date/Time
EST
Temp
°C
App
Temp
°C
Dew
Point
Rel
Hum
%
Delta-T
°C
Wind Press
QNH
hPa
Press
MSL
hPa
Rain
since 9 am
mm
Dir
 
Spd
km/h
Gust
km/h
Spd
kts
Gust
kts
25/05:30pm 24.9 24.1 17.1 62 4.9 ENE 17 24 9 13 1015.4 - 1.0
25/05:00pm 25.7 25.5 16.8 58 5.5 ENE 13 17 7 9 1015.0 1014.5 1.0
25/04:30pm 26.4 26.0 16.3 53 6.2 ENE 13 17 7 9 1014.5 - 1.0
25/04:00pm 27.5 27.3 15.8 48 7.2 ENE 11 15 6 8 1014.4 1013.9 1.0
25/03:30pm 27.4 27.0 16.1 50 7.0 ENE 13 17 7 9 1014.4 - 1.0
25/03:00pm 27.7 28.6 17.5 53 6.4 ENE 9 15 5 8 1014.4 1013.9 1.0
25/02:30pm 24.9 26.8 19.7 73 3.4 ENE 9 13 5 7 1014.5 - 1.0
25/02:00pm 23.5 25.0 19.8 80 2.4 NE 11 15 6 8 1014.8 1014.3 1.0
25/01:30pm 23.2 23.1 17.0 68 3.8 E 13 17 7 9 1015.3 - 0.8
25/01:00pm 23.4 20.2 17.2 68 3.8 E 30 44 16 24 1015.2 1014.7 0.0
25/12:55pm 23.7 20.2 15.5 60 5.0 E 28 44 15 24 1015.2 - 0.0
25/12:30pm 27.3 27.9 15.7 49 7.1 SW 7 11 4 6 1015.5 - 0.0
25/12:00pm 27.4 28.4 16.4 51 6.8 SSE 6 11 3 6 1016.0 1015.5 0.0
25/11:30am 27.0 28.5 16.6 53 6.5 ENE 4 9 2 5 1016.6 - 0.0
25/11:00am 27.1 27.4 16.1 51 6.8 NNE 9 17 5 9 1017.1 1016.6 0.0
25/10:30am 25.9 27.4 18.1 62 4.9 SE 7 13 4 7 1017.6 - 0.0
25/10:00am 24.9 26.7 17.4 63 4.7 ENE 4 9 2 5 1017.9 1017.5 0.0
25/09:30am 23.4 25.7 17.6 70 3.6 W 2 7 1 4 1018.2 - 0.0
25/09:00am 21.8 23.6 17.4 76 2.7 WSW 4 7 2 4 1018.2 1017.8 0.0
25/08:30am 20.2 21.7 16.6 80 2.2 W 4 6 2 3 1018.1 - 0.0
25/08:00am 18.3 19.2 16.1 87 1.3 W 6 7 3 4 1018.1 1017.7 0.0
25/07:30am 16.7 17.3 15.2 91 0.9 W 6 7 3 4 1017.9 - 0.0
25/07:00am 15.1 16.6 14.6 97 0.3 CALM 0 2 0 1 1017.8 1017.4 0.0
25/06:30am 13.1 13.9 12.5 96 0.3 CALM 0 0 0 0 1017.3 - 0.0
25/06:00am 13.5 14.3 12.7 95 0.4 SW 0 0 0 0 1017.0 1016.5 0.0
25/05:30am 14.1 14.9 13.6 97 0.3 SW 2 4 1 2 1016.4 - 0.0
25/05:00am 13.9 14.9 13.1 95 0.4 CALM 0 0 0 0 1016.0 1015.5 0.0
25/04:30am 14.6 15.9 14.1 97 0.3 CALM 0 0 0 0 1015.9 - 0.0
25/04:00am 14.4 15.5 13.6 95 0.4 CALM 0 0 0 0 1015.5 1015.0 0.0
25/03:30am 14.5 15.2 13.4 93 0.6 SSW 2 4 1 2 1015.5 - 0.0
25/03:00am 14.8 14.9 13.8 94 0.6 S 6 7 3 4 1015.6 1015.1 0.0
25/02:30am 15.3 16.6 14.2 93 0.6 CALM 0 0 0 0 1015.5 - 0.0
25/02:00am 15.6 17.0 14.5 93 0.6 CALM 0 0 0 0 1015.6 1015.1 0.0
25/01:30am 15.7 17.0 14.1 90 0.9 CALM 0 2 0 1 1015.9 - 0.0
25/01:00am 16.5 18.1 14.9 90 0.9 CALM 0 0 0 0 1016.0 1015.5 0.0
25/12:30am 16.9 18.5 14.9 88 1.2 CALM 0 0 0 0 1016.2 - 0.0
25/12:00am 17.5 18.5 15.3 87 1.3 S 4 6 2 3 1016.3 1015.8 0.0
 
Date/Time
EST
Temp
°C
App
Temp
°C
Dew
Point
Rel
Hum
%
Delta-T
°C
Wind Press
QNH
hPa
Press
MSL
hPa
Rain
since 9 am
mm
Dir
 
Spd
km/h
Gust
km/h
Spd
kts
Gust
kts
24/11:30pm 17.8 18.7 15.2 85 1.5 SSE 4 6 2 3 1016.3 - 0.0
24/11:00pm 18.6 20.6 16.0 85 1.5 CALM 0 6 0 3 1016.5 1016.0 0.0
24/10:30pm 19.9 21.9 16.0 78 2.3 CALM 0 0 0 0 1016.6 - 0.0
24/10:00pm 20.7 22.0 16.1 75 2.8 NE 4 6 2 3 1016.7 1016.2 0.0
24/09:30pm 21.4 22.9 16.6 74 2.9 NNE 4 6 2 3 1016.6 - 0.0
24/09:00pm 21.5 21.8 16.0 71 3.3 NE 9 11 5 6 1016.5 1016.0 0.0
24/08:30pm 22.4 22.0 16.2 68 3.8 ENE 13 19 7 10 1016.2 - 0.0
24/08:00pm 22.7 22.6 16.0 66 4.1 ENE 11 17 6 9 1015.9 1015.4 0.0
24/07:30pm 22.2 22.7 15.5 66 4.0 NE 7 9 4 5 1015.4 - 0.0
24/07:00pm 23.0 23.4 15.3 62 4.6 E 7 9 4 5 1014.9 1014.4 0.0
24/06:30pm 23.3 23.4 15.4 61 4.8 ENE 9 13 5 7 1014.5 - 0.0
24/06:00pm 23.7 24.4 15.5 60 5.0 ENE 6 7 3 4 1014.1 1013.7 0.0
24/05:30pm 25.2 25.2 15.2 54 6.0 NNE 9 15 5 8 1013.8 - 0.0
24/05:00pm 27.4 27.9 15.1 47 7.5 N 6 9 3 5 1013.4 1013.0 0.0
24/04:30pm 27.5 27.7 14.8 45 7.7 N 7 13 4 7 1013.2 - 0.0
24/04:00pm 27.8 27.9 14.4 43 8.1 NNE 7 11 4 6 1013.1 1012.7 0.0
24/03:30pm 28.6 27.8 12.9 38 9.3 SE 9 11 5 6 1012.9 - 0.0
24/03:00pm 28.0 28.0 13.5 41 8.6 NNW 6 9 3 5 1013.0 1012.6 0.0
24/02:30pm 27.0 27.2 14.7 47 7.4 E 7 11 4 6 1013.0 - 0.0
24/02:00pm 27.4 28.1 14.4 45 7.8 S 4 7 2 4 1013.3 1012.9 0.0
24/01:30pm 28.7 29.0 14.5 42 8.6 NNW 6 11 3 6 1013.5 - 0.0
24/01:00pm 28.1 28.3 14.3 42 8.3 ESE 6 13 3 7 1014.0 1013.6 0.0
24/12:30pm 27.6 28.1 14.9 45 7.7 S 6 13 3 7 1014.6 - 0.0
24/12:00pm 27.0 28.1 15.7 50 6.9 SSE 4 15 2 8 1015.2 1014.7 0.0
24/11:30am 26.6 27.2 15.9 51 6.6 E 7 15 4 8 1016.1 - 0.0
24/11:00am 25.8 27.3 16.6 56 5.7 NNW 4 9 2 5 1016.9 1016.4 0.0
24/10:30am 25.0 26.4 16.4 59 5.3 ENE 4 9 2 5 1017.5 - 0.0
24/10:00am 23.9 25.9 17.9 69 3.8 S 4 6 2 3 1017.6 1017.2 0.0
24/09:30am 22.7 25.0 17.8 74 3.1 NNE 2 6 1 3 1017.9 - 0.0
24/09:00am 21.8 24.3 18.2 80 2.3 N 2 4 1 2 1017.9 1017.5 0.0
24/08:30am 18.5 20.6 17.3 93 0.7 WSW 2 4 1 2 1017.1 - 0.0
24/08:00am 17.3 19.6 16.7 96 0.4 CALM 0 0 0 0 1016.9 1016.4 0.0
24/07:30am 16.6 18.6 16.1 97 0.3 CALM 0 0 0 0 1017.0 - 0.0
24/07:00am 15.9 16.9 15.4 97 0.3 W 4 6 2 3 1016.8 1016.3 0.0
24/06:30am 15.4 17.0 14.9 97 0.3 CALM 0 2 0 1 1016.5 - 0.0
24/06:00am 15.1 16.5 14.5 96 0.3 CALM 0 0 0 0 1016.5 1016.0 0.0
24/05:30am 15.0 16.4 14.4 96 0.3 CALM 0 0 0 0 1015.9 - 0.0
24/05:00am 15.8 17.5 15.2 96 0.3 CALM 0 0 0 0 1015.7 1015.2 0.0
24/04:30am 15.9 16.9 15.3 96 0.3 SSE 4 7 2 4 1015.2 - 0.0
24/04:00am 15.6 17.2 14.8 95 0.5 CALM 0 4 0 2 1015.4 1014.9 0.0
24/03:30am 15.8 17.4 15.0 95 0.5 CALM 0 0 0 0 1015.3 - 0.0
24/03:00am 16.4 17.9 15.8 96 0.4 S 2 4 1 2 1015.3 1014.8 0.0
24/02:30am 16.7 18.7 16.1 96 0.4 CALM 0 0 0 0 1015.6 - 0.0
24/02:00am 16.8 18.7 15.7 93 0.6 CALM 0 0 0 0 1016.1 1015.6 0.0
24/01:30am 17.4 19.6 16.6 95 0.5 CALM 0 2 0 1 1016.3 - 0.0
24/01:00am 17.4 18.8 16.4 94 0.6 ENE 4 6 2 3 1016.5 1016.0 0.0
24/12:30am 17.7 19.8 16.2 91 0.9 CALM 0 0 0 0 1017.3 - 0.0
24/12:00am 18.0 20.1 16.3 90 1.0 CALM 0 0 0 0 1017.1 1016.6 0.0
 
Date/Time
EST
Temp
°C
App
Temp
°C
Dew
Point
Rel
Hum
%
Delta-T
°C
Wind Press
QNH
hPa
Press
MSL
hPa
Rain
since 9 am
mm
Dir
 
Spd
km/h
Gust
km/h
Spd
kts
Gust
kts
23/11:30pm 18.8 21.1 16.8 88 1.2 CALM 0 0 0 0 1017.4 - 0.0
23/11:00pm 19.2 21.6 17.0 87 1.3 CALM 0 0 0 0 1017.6 1017.2 0.0
23/10:30pm 19.6 21.6 17.0 85 1.6 ENE 2 6 1 3 1017.8 - 0.0
23/10:00pm 19.8 21.1 17.0 84 1.7 ENE 6 6 3 3 1017.9 1017.5 0.0
23/09:30pm 20.1 21.2 17.1 83 1.8 ENE 7 9 4 5 1017.9 - 0.0
23/09:00pm 20.5 21.4 16.7 79 2.3 ENE 7 7 4 4 1017.7 1017.3 0.0
23/08:30pm 21.9 23.2 17.5 76 2.7 ENE 7 9 4 5 1017.6 - 0.0
23/08:00pm 22.1 22.9 17.2 74 3.0 NE 9 13 5 7 1017.4 1017.0 0.0
23/07:30pm 22.7 22.9 17.6 73 3.2 NNE 13 19 7 10 1016.9 - 0.0
23/07:00pm 22.1 22.9 17.2 74 3.0 NE 9 13 5 7 1016.6 1016.1 0.0
23/06:30pm 23.0 24.1 17.2 70 3.6 NNE 7 9 4 5 1016.2 - 0.0
23/06:00pm 24.3 23.9 17.1 64 4.5 NNE 15 22 8 12 1015.8 1015.3 0.0
23/05:30pm 25.0 24.7 14.5 52 6.3 NE 9 11 5 6 1015.4 - 0.0
23/05:00pm 26.7 26.8 14.5 47 7.3 N 7 13 4 7 1015.0 1014.5 0.0
23/04:30pm 27.1 26.1 13.4 42 8.1 E 11 15 6 8 1014.8 - 0.0
23/04:00pm 27.6 26.4 13.9 43 8.2 E 13 19 7 10 1014.7 1014.2 0.0
23/03:30pm 26.8 26.8 14.2 46 7.5 ENE 7 9 4 5 1014.7 - 0.0
23/03:00pm 27.4 28.7 15.1 47 7.5 NW 2 6 1 3 1014.8 1014.3 0.0
23/02:30pm 26.3 27.5 15.0 49 6.8 ENE 2 6 1 3 1015.1 - 0.0
23/02:00pm 26.2 26.5 15.0 50 6.8 NE 7 11 4 6 1015.3 1014.8 0.0
23/01:30pm 26.4 26.6 14.8 49 7.0 ENE 7 13 4 7 1015.6 - 0.0
23/01:00pm 26.1 25.7 15.2 51 6.6 NE 11 17 6 9 1016.0 1015.5 0.0
23/12:30pm 27.0 26.8 14.7 47 7.4 NE 9 19 5 10 1016.5 - 0.0
23/12:00pm 26.0 26.7 14.5 49 6.9 E 4 9 2 5 1017.0 1016.5 0.0
23/11:30am 25.9 26.8 16.2 55 6.0 NE 6 9 3 5 1017.7 - 0.0
23/11:00am 25.3 26.1 15.9 56 5.7 E 6 13 3 7 1018.1 1017.7 0.0
23/10:30am 24.5 25.4 16.7 61 4.8 N 7 11 4 6 1018.7 - 0.0
23/10:00am 24.0 25.6 17.0 65 4.3 NE 4 7 2 4 1018.9 1018.5 0.0
23/09:30am 22.7 25.1 16.9 70 3.6 CALM 0 4 0 2 1019.2 - 0.0
23/09:00am 21.0 23.3 16.8 77 2.6 CALM 0 2 0 1 1019.1 1018.7 0.0
23/08:30am 19.6 21.5 16.6 83 1.8 SW 2 6 1 3 1019.2 - 0.0
23/08:00am 18.2 20.0 16.5 90 1.0 WSW 2 4 1 2 1019.0 1018.6 0.0
23/07:30am 17.3 18.5 16.0 92 0.8 WSW 4 6 2 3 1018.8 - 0.0
23/07:00am 16.6 17.8 15.8 95 0.5 WNW 4 6 2 3 1018.7 1018.3 0.0
23/06:30am 16.1 17.7 15.0 93 0.6 CALM 0 0 0 0 1018.2 - 0.0
23/06:00am 16.1 17.8 15.1 94 0.6 CALM 0 0 0 0 1018.4 1018.0 0.0
23/05:30am 15.8 17.2 14.5 92 0.7 CALM 0 0 0 0 1018.3 - 0.0
23/05:00am 16.0 17.1 14.7 92 0.7 N 2 4 1 2 1018.5 1018.1 0.0
23/04:30am 15.8 17.1 14.2 90 0.9 CALM 0 0 0 0 1017.9 - 0.0
23/04:00am 16.5 18.1 14.9 90 0.9 CALM 0 0 0 0 1017.7 1017.3 0.0
23/03:30am 16.9 18.6 15.1 89 1.0 CALM 0 0 0 0 1017.9 - 0.0
23/03:00am 16.4 17.9 14.6 89 1.0 CALM 0 0 0 0 1017.8 1017.4 0.0
23/02:30am 16.6 17.9 14.2 86 1.4 CALM 0 0 0 0 1018.1 - 0.0
23/02:00am 17.1 18.6 14.7 86 1.4 CALM 0 0 0 0 1018.4 1018.0 0.0
23/01:30am 17.4 19.0 14.9 85 1.5 CALM 0 0 0 0 1018.6 - 0.0
23/01:00am 17.2 18.6 14.3 83 1.7 CALM 0 0 0 0 1018.8 1018.4 0.0
23/12:30am 17.6 19.0 14.3 81 1.9 CALM 0 0 0 0 1019.0 - 0.0
23/12:00am 18.0 19.5 14.7 81 1.9 CALM 0 0 0 0 1019.2 1018.8 0.0
 
Date/Time
EST
Temp
°C
App
Temp
°C
Dew
Point
Rel
Hum
%
Delta-T
°C
Wind Press
QNH
hPa
Press
MSL
hPa
Rain
since 9 am
mm
Dir
 
Spd
km/h
Gust
km/h
Spd
kts
Gust
kts
22/11:30pm 18.2 19.6 14.5 79 2.1 CALM 0 0 0 0 1019.4 - 0.0
22/11:00pm 18.4 19.8 14.3 77 2.4 CALM 0 4 0 2 1019.5 1019.1 0.0
22/10:30pm 18.8 20.2 14.3 75 2.6 CALM 0 0 0 0 1019.6 - 0.0
22/10:00pm 19.7 21.1 14.5 72 3.0 CALM 0 0 0 0 1019.7 1019.3 0.0
22/09:30pm 20.0 20.8 14.8 72 3.1 SSE 4 6 2 3 1019.6 - 0.0
22/09:00pm 20.3 20.9 14.2 68 3.5 NNE 4 7 2 4 1019.5 1019.1 0.0
22/08:30pm 20.1 20.2 13.8 67 3.6 NE 6 7 3 4 1019.4 - 0.0
22/08:00pm 20.9 20.4 13.8 64 4.1 NE 9 11 5 6 1019.2 1018.8 0.0
22/07:30pm 21.2 21.0 13.6 62 4.4 NE 7 9 4 5 1018.9 - 0.0
22/07:00pm 21.9 21.8 13.3 58 5.0 NE 6 7 3 4 1018.4 1018.0 0.0
22/06:30pm 22.1 21.8 13.2 57 5.1 ENE 7 9 4 5 1018.1 - 0.0
22/06:00pm 23.2 23.0 13.1 53 5.8 NE 6 7 3 4 1018.0 1017.6 0.0

Other Formats:

Comma delimited format used in spreadsheet applications
http://www.bom.gov.au/fwo/IDQ60801/IDQ60801.95543.axf

JavaScript Object Notation format (JSON) in row-major order
http://www.bom.gov.au/fwo/IDQ60801/IDQ60801.95543.json